sensor_id;sensor_type;location;lat;lon;timestamp;P1;durP1;ratioP1;P2;durP2;ratioP2
12076;SDS011;12420;42.676;23.262;2022-07-18T00:02:11;3.13;;;2.47;;
12076;SDS011;12420;42.676;23.262;2022-07-18T00:04:37;2.23;;;2.03;;
12076;SDS011;12420;42.676;23.262;2022-07-18T00:07:04;2.20;;;2.10;;
12076;SDS011;12420;42.676;23.262;2022-07-18T00:09:32;2.03;;;1.87;;
12076;SDS011;12420;42.676;23.262;2022-07-18T00:11:59;2.73;;;2.03;;
12076;SDS011;12420;42.676;23.262;2022-07-18T00:14:26;2.97;;;2.17;;
12076;SDS011;12420;42.676;23.262;2022-07-18T00:16:54;3.90;;;2.03;;
12076;SDS011;12420;42.676;23.262;2022-07-18T00:19:21;5.80;;;2.33;;
12076;SDS011;12420;42.676;23.262;2022-07-18T00:21:48;3.27;;;1.90;;
12076;SDS011;12420;42.676;23.262;2022-07-18T00:24:15;2.20;;;2.00;;
12076;SDS011;12420;42.676;23.262;2022-07-18T00:26:41;2.03;;;1.90;;
12076;SDS011;12420;42.676;23.262;2022-07-18T00:29:08;2.10;;;1.80;;
12076;SDS011;12420;42.676;23.262;2022-07-18T00:31:35;1.60;;;1.53;;
12076;SDS011;12420;42.676;23.262;2022-07-18T00:34:04;3.40;;;2.03;;
12076;SDS011;12420;42.676;23.262;2022-07-18T00:36:31;2.00;;;1.90;;
12076;SDS011;12420;42.676;23.262;2022-07-18T00:38:58;3.10;;;1.80;;
12076;SDS011;12420;42.676;23.262;2022-07-18T00:41:25;3.43;;;1.93;;
12076;SDS011;12420;42.676;23.262;2022-07-18T00:43:52;3.73;;;1.77;;
12076;SDS011;12420;42.676;23.262;2022-07-18T00:46:22;2.00;;;1.87;;
12076;SDS011;12420;42.676;23.262;2022-07-18T00:48:49;1.90;;;1.80;;
12076;SDS011;12420;42.676;23.262;2022-07-18T00:51:18;2.43;;;2.00;;
12076;SDS011;12420;42.676;23.262;2022-07-18T00:53:46;1.67;;;1.63;;
12076;SDS011;12420;42.676;23.262;2022-07-18T00:56:14;5.30;;;1.80;;
12076;SDS011;12420;42.676;23.262;2022-07-18T00:58:44;2.50;;;1.67;;
12076;SDS011;12420;42.676;23.262;2022-07-18T01:01:11;1.67;;;1.60;;
12076;SDS011;12420;42.676;23.262;2022-07-18T01:03:55;1.67;;;1.57;;
12076;SDS011;12420;42.676;23.262;2022-07-18T01:06:27;3.27;;;1.70;;
12076;SDS011;12420;42.676;23.262;2022-07-18T01:08:53;3.73;;;1.70;;
12076;SDS011;12420;42.676;23.262;2022-07-18T01:11:20;1.90;;;1.80;;
12076;SDS011;12420;42.676;23.262;2022-07-18T01:13:47;2.13;;;1.70;;
12076;SDS011;12420;42.676;23.262;2022-07-18T01:16:15;2.93;;;1.73;;
12076;SDS011;12420;42.676;23.262;2022-07-18T01:18:43;5.23;;;1.77;;
12076;SDS011;12420;42.676;23.262;2022-07-18T01:21:13;1.53;;;1.43;;
12076;SDS011;12420;42.676;23.262;2022-07-18T01:23:40;1.80;;;1.70;;
12076;SDS011;12420;42.676;23.262;2022-07-18T01:26:08;1.60;;;1.50;;
12076;SDS011;12420;42.676;23.262;2022-07-18T01:28:35;4.07;;;1.57;;
12076;SDS011;12420;42.676;23.262;2022-07-18T01:31:02;2.87;;;1.80;;
12076;SDS011;12420;42.676;23.262;2022-07-18T01:33:30;1.50;;;1.40;;
12076;SDS011;12420;42.676;23.262;2022-07-18T01:35:57;2.10;;;1.67;;
12076;SDS011;12420;42.676;23.262;2022-07-18T01:38:26;4.13;;;1.70;;
12076;SDS011;12420;42.676;23.262;2022-07-18T01:40:53;1.47;;;1.47;;
12076;SDS011;12420;42.676;23.262;2022-07-18T01:43:21;4.83;;;1.80;;
12076;SDS011;12420;42.676;23.262;2022-07-18T01:45:48;1.77;;;1.67;;
12076;SDS011;12420;42.676;23.262;2022-07-18T01:48:15;3.20;;;1.80;;
12076;SDS011;12420;42.676;23.262;2022-07-18T01:50:41;2.83;;;1.80;;
12076;SDS011;12420;42.676;23.262;2022-07-18T01:53:08;5.73;;;1.87;;
12076;SDS011;12420;42.676;23.262;2022-07-18T01:55:36;3.37;;;1.70;;
12076;SDS011;12420;42.676;23.262;2022-07-18T01:58:03;2.73;;;1.40;;
12076;SDS011;12420;42.676;23.262;2022-07-18T02:00:31;1.80;;;1.60;;
12076;SDS011;12420;42.676;23.262;2022-07-18T02:02:58;1.50;;;1.50;;
12076;SDS011;12420;42.676;23.262;2022-07-18T02:05:24;1.57;;;1.47;;
12076;SDS011;12420;42.676;23.262;2022-07-18T02:07:51;1.70;;;1.60;;
12076;SDS011;12420;42.676;23.262;2022-07-18T02:10:20;1.90;;;1.80;;
12076;SDS011;12420;42.676;23.262;2022-07-18T02:12:49;1.70;;;1.60;;
12076;SDS011;12420;42.676;23.262;2022-07-18T02:15:16;1.43;;;1.40;;
12076;SDS011;12420;42.676;23.262;2022-07-18T02:17:42;2.80;;;1.70;;
12076;SDS011;12420;42.676;23.262;2022-07-18T02:20:11;1.97;;;1.77;;
12076;SDS011;12420;42.676;23.262;2022-07-18T02:22:39;2.00;;;1.80;;
12076;SDS011;12420;42.676;23.262;2022-07-18T02:25:07;1.80;;;1.70;;
12076;SDS011;12420;42.676;23.262;2022-07-18T02:27:34;2.47;;;1.70;;
12076;SDS011;12420;42.676;23.262;2022-07-18T02:30:02;2.70;;;1.90;;
12076;SDS011;12420;42.676;23.262;2022-07-18T02:32:32;2.20;;;2.00;;
12076;SDS011;12420;42.676;23.262;2022-07-18T02:35:02;2.10;;;2.00;;
12076;SDS011;12420;42.676;23.262;2022-07-18T02:37:29;2.90;;;1.53;;
12076;SDS011;12420;42.676;23.262;2022-07-18T02:39:56;2.00;;;1.90;;
12076;SDS011;12420;42.676;23.262;2022-07-18T02:42:23;2.20;;;1.90;;
12076;SDS011;12420;42.676;23.262;2022-07-18T02:44:49;2.57;;;1.57;;
12076;SDS011;12420;42.676;23.262;2022-07-18T02:47:17;3.10;;;1.50;;
12076;SDS011;12420;42.676;23.262;2022-07-18T02:49:44;5.33;;;1.70;;
12076;SDS011;12420;42.676;23.262;2022-07-18T02:52:11;3.27;;;1.40;;
12076;SDS011;12420;42.676;23.262;2022-07-18T02:54:38;1.70;;;1.60;;
12076;SDS011;12420;42.676;23.262;2022-07-18T02:57:05;1.67;;;1.60;;
12076;SDS011;12420;42.676;23.262;2022-07-18T02:59:32;1.97;;;1.87;;
12076;SDS011;12420;42.676;23.262;2022-07-18T03:01:59;3.83;;;2.80;;
12076;SDS011;12420;42.676;23.262;2022-07-18T03:04:27;4.33;;;2.40;;
12076;SDS011;12420;42.676;23.262;2022-07-18T03:06:54;3.20;;;2.10;;
12076;SDS011;12420;42.676;23.262;2022-07-18T03:09:21;4.90;;;2.73;;
12076;SDS011;12420;42.676;23.262;2022-07-18T03:11:52;3.87;;;2.43;;
12076;SDS011;12420;42.676;23.262;2022-07-18T03:14:19;3.63;;;2.33;;
12076;SDS011;12420;42.676;23.262;2022-07-18T03:16:46;3.87;;;2.00;;
12076;SDS011;12420;42.676;23.262;2022-07-18T03:19:12;2.97;;;2.13;;
12076;SDS011;12420;42.676;23.262;2022-07-18T03:21:41;2.30;;;1.90;;
12076;SDS011;12420;42.676;23.262;2022-07-18T03:24:08;1.98;;;1.85;;
12076;SDS011;12420;42.676;23.262;2022-07-18T03:26:35;2.50;;;1.80;;
12076;SDS011;12420;42.676;23.262;2022-07-18T03:29:03;3.73;;;1.90;;
12076;SDS011;12420;42.676;23.262;2022-07-18T03:31:30;2.67;;;1.77;;
12076;SDS011;12420;42.676;23.262;2022-07-18T03:33:59;2.83;;;1.60;;
12076;SDS011;12420;42.676;23.262;2022-07-18T03:36:26;2.97;;;1.67;;
12076;SDS011;12420;42.676;23.262;2022-07-18T03:38:55;2.00;;;1.70;;
12076;SDS011;12420;42.676;23.262;2022-07-18T03:41:22;3.63;;;1.80;;
12076;SDS011;12420;42.676;23.262;2022-07-18T03:43:49;3.63;;;1.77;;
12076;SDS011;12420;42.676;23.262;2022-07-18T03:46:15;3.30;;;1.83;;
12076;SDS011;12420;42.676;23.262;2022-07-18T03:48:44;3.03;;;1.70;;
12076;SDS011;12420;42.676;23.262;2022-07-18T03:51:11;2.90;;;1.60;;
12076;SDS011;12420;42.676;23.262;2022-07-18T03:53:37;1.73;;;1.50;;
12076;SDS011;12420;42.676;23.262;2022-07-18T03:56:06;4.83;;;2.10;;
12076;SDS011;12420;42.676;23.262;2022-07-18T03:58:33;1.90;;;1.70;;
12076;SDS011;12420;42.676;23.262;2022-07-18T04:01:00;4.17;;;1.60;;
12076;SDS011;12420;42.676;23.262;2022-07-18T04:03:26;5.00;;;1.67;;
12076;SDS011;12420;42.676;23.262;2022-07-18T04:05:53;1.67;;;1.57;;
12076;SDS011;12420;42.676;23.262;2022-07-18T04:08:21;6.70;;;1.63;;
12076;SDS011;12420;42.676;23.262;2022-07-18T04:10:48;5.37;;;1.73;;
12076;SDS011;12420;42.676;23.262;2022-07-18T04:13:16;5.57;;;2.00;;
12076;SDS011;12420;42.676;23.262;2022-07-18T04:15:43;2.37;;;2.00;;
12076;SDS011;12420;42.676;23.262;2022-07-18T04:18:10;2.43;;;1.80;;
12076;SDS011;12420;42.676;23.262;2022-07-18T04:20:37;4.50;;;1.93;;
12076;SDS011;12420;42.676;23.262;2022-07-18T04:23:05;4.50;;;1.90;;
12076;SDS011;12420;42.676;23.262;2022-07-18T04:25:33;4.97;;;2.33;;
12076;SDS011;12420;42.676;23.262;2022-07-18T04:28:01;7.17;;;2.03;;
12076;SDS011;12420;42.676;23.262;2022-07-18T04:30:31;48.07;;;4.50;;
12076;SDS011;12420;42.676;23.262;2022-07-18T04:33:00;4.10;;;1.80;;
12076;SDS011;12420;42.676;23.262;2022-07-18T04:35:32;2.73;;;1.50;;
12076;SDS011;12420;42.676;23.262;2022-07-18T04:38:01;1.73;;;1.50;;
12076;SDS011;12420;42.676;23.262;2022-07-18T04:40:28;5.90;;;1.97;;
12076;SDS011;12420;42.676;23.262;2022-07-18T04:42:55;1.90;;;1.77;;
12076;SDS011;12420;42.676;23.262;2022-07-18T04:45:21;1.50;;;1.40;;
12076;SDS011;12420;42.676;23.262;2022-07-18T04:47:50;3.13;;;1.63;;
12076;SDS011;12420;42.676;23.262;2022-07-18T04:50:17;1.57;;;1.47;;
12076;SDS011;12420;42.676;23.262;2022-07-18T04:52:45;4.30;;;1.60;;
12076;SDS011;12420;42.676;23.262;2022-07-18T04:55:13;3.30;;;1.30;;
12076;SDS011;12420;42.676;23.262;2022-07-18T04:57:41;1.20;;;1.10;;
12076;SDS011;12420;42.676;23.262;2022-07-18T05:00:09;5.10;;;1.40;;
12076;SDS011;12420;42.676;23.262;2022-07-18T05:02:38;1.40;;;1.30;;
12076;SDS011;12420;42.676;23.262;2022-07-18T05:05:11;3.07;;;1.47;;
12076;SDS011;12420;42.676;23.262;2022-07-18T05:07:39;7.70;;;1.60;;
12076;SDS011;12420;42.676;23.262;2022-07-18T05:10:08;1.40;;;1.30;;
12076;SDS011;12420;42.676;23.262;2022-07-18T05:12:36;1.60;;;1.50;;
12076;SDS011;12420;42.676;23.262;2022-07-18T05:15:04;2.57;;;1.50;;
12076;SDS011;12420;42.676;23.262;2022-07-18T05:17:32;1.90;;;1.30;;
12076;SDS011;12420;42.676;23.262;2022-07-18T05:19:59;1.43;;;1.30;;
12076;SDS011;12420;42.676;23.262;2022-07-18T05:22:27;1.40;;;1.30;;
12076;SDS011;12420;42.676;23.262;2022-07-18T05:24:54;4.20;;;1.20;;
12076;SDS011;12420;42.676;23.262;2022-07-18T05:27:21;2.73;;;1.40;;
12076;SDS011;12420;42.676;23.262;2022-07-18T05:29:48;2.30;;;1.20;;
12076;SDS011;12420;42.676;23.262;2022-07-18T05:32:15;1.50;;;1.40;;
12076;SDS011;12420;42.676;23.262;2022-07-18T05:34:42;3.27;;;1.40;;
12076;SDS011;12420;42.676;23.262;2022-07-18T05:37:09;3.17;;;1.33;;
12076;SDS011;12420;42.676;23.262;2022-07-18T05:39:37;1.60;;;1.50;;
12076;SDS011;12420;42.676;23.262;2022-07-18T05:42:04;1.47;;;1.40;;
12076;SDS011;12420;42.676;23.262;2022-07-18T05:44:31;3.50;;;1.50;;
12076;SDS011;12420;42.676;23.262;2022-07-18T05:46:58;5.27;;;1.80;;
12076;SDS011;12420;42.676;23.262;2022-07-18T05:49:25;5.83;;;1.60;;
12076;SDS011;12420;42.676;23.262;2022-07-18T05:51:52;6.70;;;1.30;;
12076;SDS011;12420;42.676;23.262;2022-07-18T05:54:19;2.27;;;1.23;;
12076;SDS011;12420;42.676;23.262;2022-07-18T05:56:48;6.33;;;1.40;;
12076;SDS011;12420;42.676;23.262;2022-07-18T05:59:15;2.57;;;1.60;;
12076;SDS011;12420;42.676;23.262;2022-07-18T06:01:43;2.47;;;1.30;;
12076;SDS011;12420;42.676;23.262;2022-07-18T06:04:09;5.57;;;1.57;;
12076;SDS011;12420;42.676;23.262;2022-07-18T06:06:37;2.83;;;1.40;;
12076;SDS011;12420;42.676;23.262;2022-07-18T06:09:04;1.27;;;1.17;;
12076;SDS011;12420;42.676;23.262;2022-07-18T06:11:33;2.53;;;1.30;;
12076;SDS011;12420;42.676;23.262;2022-07-18T06:14:02;3.22;;;1.40;;
12076;SDS011;12420;42.676;23.262;2022-07-18T06:16:29;5.87;;;1.63;;
12076;SDS011;12420;42.676;23.262;2022-07-18T06:18:57;1.67;;;1.47;;
12076;SDS011;12420;42.676;23.262;2022-07-18T06:21:24;1.73;;;1.40;;
12076;SDS011;12420;42.676;23.262;2022-07-18T06:23:51;3.38;;;1.20;;
12076;SDS011;12420;42.676;23.262;2022-07-18T06:26:18;3.00;;;1.60;;
12076;SDS011;12420;42.676;23.262;2022-07-18T06:28:45;3.08;;;1.40;;
12076;SDS011;12420;42.676;23.262;2022-07-18T06:31:13;1.67;;;1.50;;
12076;SDS011;12420;42.676;23.262;2022-07-18T06:33:42;1.67;;;1.20;;
12076;SDS011;12420;42.676;23.262;2022-07-18T06:36:09;5.00;;;1.63;;
12076;SDS011;12420;42.676;23.262;2022-07-18T06:38:37;1.20;;;1.20;;
12076;SDS011;12420;42.676;23.262;2022-07-18T06:41:04;2.72;;;1.48;;
12076;SDS011;12420;42.676;23.262;2022-07-18T06:43:31;1.63;;;1.25;;
12076;SDS011;12420;42.676;23.262;2022-07-18T06:45:58;1.60;;;1.40;;
12076;SDS011;12420;42.676;23.262;2022-07-18T06:48:27;1.42;;;1.33;;
12076;SDS011;12420;42.676;23.262;2022-07-18T06:50:58;3.35;;;1.48;;
12076;SDS011;12420;42.676;23.262;2022-07-18T06:53:26;2.33;;;1.25;;
12076;SDS011;12420;42.676;23.262;2022-07-18T06:55:53;1.70;;;1.30;;
12076;SDS011;12420;42.676;23.262;2022-07-18T06:58:31;5.90;;;1.50;;
12076;SDS011;12420;42.676;23.262;2022-07-18T07:00:58;1.30;;;1.30;;
12076;SDS011;12420;42.676;23.262;2022-07-18T07:03:27;1.85;;;1.30;;
12076;SDS011;12420;42.676;23.262;2022-07-18T07:05:54;1.23;;;1.23;;
12076;SDS011;12420;42.676;23.262;2022-07-18T07:08:20;5.75;;;1.48;;
12076;SDS011;12420;42.676;23.262;2022-07-18T07:10:47;4.03;;;1.60;;
12076;SDS011;12420;42.676;23.262;2022-07-18T07:13:15;3.22;;;1.40;;
12076;SDS011;12420;42.676;23.262;2022-07-18T07:15:42;1.88;;;1.45;;
12076;SDS011;12420;42.676;23.262;2022-07-18T07:18:08;2.40;;;1.42;;
12076;SDS011;12420;42.676;23.262;2022-07-18T07:20:37;2.55;;;1.60;;
12076;SDS011;12420;42.676;23.262;2022-07-18T07:23:04;4.68;;;1.55;;
12076;SDS011;12420;42.676;23.262;2022-07-18T07:25:33;1.50;;;1.40;;
12076;SDS011;12420;42.676;23.262;2022-07-18T07:28:00;2.00;;;1.50;;
12076;SDS011;12420;42.676;23.262;2022-07-18T07:30:27;2.90;;;1.20;;
12076;SDS011;12420;42.676;23.262;2022-07-18T07:32:54;1.30;;;1.27;;
12076;SDS011;12420;42.676;23.262;2022-07-18T07:35:21;4.72;;;1.52;;
12076;SDS011;12420;42.676;23.262;2022-07-18T07:37:50;2.05;;;1.27;;
12076;SDS011;12420;42.676;23.262;2022-07-18T07:40:18;2.58;;;1.35;;
12076;SDS011;12420;42.676;23.262;2022-07-18T07:42:46;1.30;;;1.20;;
12076;SDS011;12420;42.676;23.262;2022-07-18T07:45:14;1.40;;;1.30;;
12076;SDS011;12420;42.676;23.262;2022-07-18T07:47:41;1.10;;;1.10;;
12076;SDS011;12420;42.676;23.262;2022-07-18T07:50:09;1.77;;;1.20;;
12076;SDS011;12420;42.676;23.262;2022-07-18T07:52:38;2.00;;;1.10;;
12076;SDS011;12420;42.676;23.262;2022-07-18T07:55:06;1.75;;;1.30;;
12076;SDS011;12420;42.676;23.262;2022-07-18T07:57:34;2.92;;;1.08;;
12076;SDS011;12420;42.676;23.262;2022-07-18T08:00:02;1.25;;;1.20;;
12076;SDS011;12420;42.676;23.262;2022-07-18T08:02:31;2.55;;;1.20;;
12076;SDS011;12420;42.676;23.262;2022-07-18T08:04:58;3.60;;;1.20;;
12076;SDS011;12420;42.676;23.262;2022-07-18T08:07:25;8.05;;;1.30;;
12076;SDS011;12420;42.676;23.262;2022-07-18T08:09:52;0.95;;;0.95;;
12076;SDS011;12420;42.676;23.262;2022-07-18T08:12:20;4.30;;;1.40;;
12076;SDS011;12420;42.676;23.262;2022-07-18T08:14:47;3.03;;;1.08;;
12076;SDS011;12420;42.676;23.262;2022-07-18T08:17:14;2.22;;;1.25;;
12076;SDS011;12420;42.676;23.262;2022-07-18T08:19:41;3.20;;;1.20;;
12076;SDS011;12420;42.676;23.262;2022-07-18T08:22:08;2.80;;;1.20;;
12076;SDS011;12420;42.676;23.262;2022-07-18T08:24:35;6.68;;;1.48;;
12076;SDS011;12420;42.676;23.262;2022-07-18T08:27:02;1.30;;;1.27;;
12076;SDS011;12420;42.676;23.262;2022-07-18T08:29:30;2.50;;;1.20;;
12076;SDS011;12420;42.676;23.262;2022-07-18T08:31:57;2.85;;;1.27;;
12076;SDS011;12420;42.676;23.262;2022-07-18T08:34:23;1.10;;;1.10;;
12076;SDS011;12420;42.676;23.262;2022-07-18T08:36:50;1.50;;;1.08;;
12076;SDS011;12420;42.676;23.262;2022-07-18T08:39:17;3.92;;;1.60;;
12076;SDS011;12420;42.676;23.262;2022-07-18T08:41:44;2.25;;;1.25;;
12076;SDS011;12420;42.676;23.262;2022-07-18T08:44:12;1.98;;;1.15;;
12076;SDS011;12420;42.676;23.262;2022-07-18T08:46:43;1.52;;;1.42;;
12076;SDS011;12420;42.676;23.262;2022-07-18T08:49:15;5.35;;;1.70;;
12076;SDS011;12420;42.676;23.262;2022-07-18T08:51:42;1.88;;;1.70;;
12076;SDS011;12420;42.676;23.262;2022-07-18T08:54:10;1.30;;;1.20;;
12076;SDS011;12420;42.676;23.262;2022-07-18T08:56:37;3.05;;;1.40;;
12076;SDS011;12420;42.676;23.262;2022-07-18T08:59:03;3.80;;;1.70;;
12076;SDS011;12420;42.676;23.262;2022-07-18T09:01:30;2.35;;;1.40;;
12076;SDS011;12420;42.676;23.262;2022-07-18T09:03:59;1.40;;;1.35;;
12076;SDS011;12420;42.676;23.262;2022-07-18T09:06:42;1.33;;;1.30;;
12076;SDS011;12420;42.676;23.262;2022-07-18T09:09:11;1.83;;;1.30;;
12076;SDS011;12420;42.676;23.262;2022-07-18T09:11:48;1.80;;;1.70;;
12076;SDS011;12420;42.676;23.262;2022-07-18T09:14:29;4.80;;;1.45;;
12076;SDS011;12420;42.676;23.262;2022-07-18T09:17:00;1.60;;;1.50;;
12076;SDS011;12420;42.676;23.262;2022-07-18T09:19:29;15.90;;;2.50;;
12076;SDS011;12420;42.676;23.262;2022-07-18T09:22:10;2.88;;;1.45;;
12076;SDS011;12420;42.676;23.262;2022-07-18T09:24:54;1.75;;;1.63;;
12076;SDS011;12420;42.676;23.262;2022-07-18T09:27:27;9.68;;;1.88;;
12076;SDS011;12420;42.676;23.262;2022-07-18T09:30:09;2.25;;;1.40;;
12076;SDS011;12420;42.676;23.262;2022-07-18T09:32:42;2.40;;;1.80;;
12076;SDS011;12420;42.676;23.262;2022-07-18T09:35:13;2.28;;;1.50;;
12076;SDS011;12420;42.676;23.262;2022-07-18T09:37:51;3.35;;;1.77;;
12076;SDS011;12420;42.676;23.262;2022-07-18T09:40:20;3.10;;;1.70;;
12076;SDS011;12420;42.676;23.262;2022-07-18T09:42:49;5.95;;;1.70;;
12076;SDS011;12420;42.676;23.262;2022-07-18T09:45:20;7.75;;;1.80;;
12076;SDS011;12420;42.676;23.262;2022-07-18T09:47:49;5.72;;;1.70;;
12076;SDS011;12420;42.676;23.262;2022-07-18T09:50:22;1.95;;;1.77;;
12076;SDS011;12420;42.676;23.262;2022-07-18T09:53:01;4.05;;;1.80;;
12076;SDS011;12420;42.676;23.262;2022-07-18T09:55:41;4.15;;;2.15;;
12076;SDS011;12420;42.676;23.262;2022-07-18T09:58:09;1.60;;;1.50;;
12076;SDS011;12420;42.676;23.262;2022-07-18T10:00:37;5.53;;;1.88;;
12076;SDS011;12420;42.676;23.262;2022-07-18T10:03:06;2.67;;;1.58;;
12076;SDS011;12420;42.676;23.262;2022-07-18T10:05:36;1.73;;;1.63;;
12076;SDS011;12420;42.676;23.262;2022-07-18T10:08:05;3.03;;;1.65;;
12076;SDS011;12420;42.676;23.262;2022-07-18T10:10:33;2.67;;;1.70;;
12076;SDS011;12420;42.676;23.262;2022-07-18T10:13:01;2.28;;;1.60;;
12076;SDS011;12420;42.676;23.262;2022-07-18T10:15:31;2.65;;;2.17;;
12076;SDS011;12420;42.676;23.262;2022-07-18T10:17:59;4.93;;;2.05;;
12076;SDS011;12420;42.676;23.262;2022-07-18T10:20:29;1.60;;;1.50;;
12076;SDS011;12420;42.676;23.262;2022-07-18T10:23:01;2.13;;;1.92;;
12076;SDS011;12420;42.676;23.262;2022-07-18T10:25:34;2.88;;;1.88;;
12076;SDS011;12420;42.676;23.262;2022-07-18T10:28:03;2.78;;;1.73;;
12076;SDS011;12420;42.676;23.262;2022-07-18T10:30:33;4.75;;;2.00;;
12076;SDS011;12420;42.676;23.262;2022-07-18T10:33:39;3.55;;;1.83;;
12076;SDS011;12420;42.676;23.262;2022-07-18T10:36:09;4.75;;;2.10;;
12076;SDS011;12420;42.676;23.262;2022-07-18T10:38:39;8.50;;;1.80;;
12076;SDS011;12420;42.676;23.262;2022-07-18T10:41:30;5.18;;;1.80;;
12076;SDS011;12420;42.676;23.262;2022-07-18T10:44:00;4.15;;;2.08;;
12076;SDS011;12420;42.676;23.262;2022-07-18T10:47:04;4.68;;;2.10;;
12076;SDS011;12420;42.676;23.262;2022-07-18T10:55:44;4.15;;;2.60;;
12076;SDS011;12420;42.676;23.262;2022-07-18T10:58:19;2.10;;;1.90;;
12076;SDS011;12420;42.676;23.262;2022-07-18T11:00:50;2.40;;;1.80;;
12076;SDS011;12420;42.676;23.262;2022-07-18T11:03:26;5.20;;;2.03;;
12076;SDS011;12420;42.676;23.262;2022-07-18T11:05:55;2.17;;;1.98;;
12076;SDS011;12420;42.676;23.262;2022-07-18T11:08:22;3.13;;;2.28;;
12076;SDS011;12420;42.676;23.262;2022-07-18T11:11:11;3.65;;;2.05;;
12076;SDS011;12420;42.676;23.262;2022-07-18T11:13:43;2.33;;;2.00;;
12076;SDS011;12420;42.676;23.262;2022-07-18T11:16:15;8.35;;;2.10;;
12076;SDS011;12420;42.676;23.262;2022-07-18T11:21:44;7.88;;;2.42;;
12076;SDS011;12420;42.676;23.262;2022-07-18T11:24:12;3.03;;;2.00;;
12076;SDS011;12420;42.676;23.262;2022-07-18T11:26:44;14.30;;;2.10;;
12076;SDS011;12420;42.676;23.262;2022-07-18T11:29:14;3.40;;;1.98;;
12076;SDS011;12420;42.676;23.262;2022-07-18T11:31:45;7.68;;;2.38;;
12076;SDS011;12420;42.676;23.262;2022-07-18T11:34:13;3.17;;;2.05;;
12076;SDS011;12420;42.676;23.262;2022-07-18T11:36:41;7.13;;;2.40;;
12076;SDS011;12420;42.676;23.262;2022-07-18T11:39:09;4.28;;;2.25;;
12076;SDS011;12420;42.676;23.262;2022-07-18T11:41:36;4.03;;;2.22;;
12076;SDS011;12420;42.676;23.262;2022-07-18T11:44:16;9.27;;;2.50;;
12076;SDS011;12420;42.676;23.262;2022-07-18T11:46:46;5.10;;;2.17;;
12076;SDS011;12420;42.676;23.262;2022-07-18T11:49:13;7.13;;;2.20;;
12076;SDS011;12420;42.676;23.262;2022-07-18T11:51:41;2.53;;;2.22;;
12076;SDS011;12420;42.676;23.262;2022-07-18T11:54:09;2.50;;;2.30;;
12076;SDS011;12420;42.676;23.262;2022-07-18T11:56:44;4.40;;;2.33;;
12076;SDS011;12420;42.676;23.262;2022-07-18T11:59:13;2.30;;;2.10;;
12076;SDS011;12420;42.676;23.262;2022-07-18T12:01:43;2.95;;;2.20;;
12076;SDS011;12420;42.676;23.262;2022-07-18T12:04:15;2.90;;;2.10;;
12076;SDS011;12420;42.676;23.262;2022-07-18T12:06:44;5.63;;;2.17;;
12076;SDS011;12420;42.676;23.262;2022-07-18T12:09:12;2.47;;;2.28;;
12076;SDS011;12420;42.676;23.262;2022-07-18T12:11:39;3.80;;;2.40;;
12076;SDS011;12420;42.676;23.262;2022-07-18T12:14:13;3.60;;;2.40;;
12076;SDS011;12420;42.676;23.262;2022-07-18T12:16:42;4.22;;;2.20;;
12076;SDS011;12420;42.676;23.262;2022-07-18T12:19:12;6.80;;;2.40;;
12076;SDS011;12420;42.676;23.262;2022-07-18T12:21:46;2.40;;;2.20;;
12076;SDS011;12420;42.676;23.262;2022-07-18T12:24:26;3.38;;;2.40;;
12076;SDS011;12420;42.676;23.262;2022-07-18T12:29:55;4.63;;;2.35;;
12076;SDS011;12420;42.676;23.262;2022-07-18T12:32:29;2.88;;;2.63;;
12076;SDS011;12420;42.676;23.262;2022-07-18T12:34:57;4.88;;;2.38;;
12076;SDS011;12420;42.676;23.262;2022-07-18T12:37:27;3.17;;;2.28;;
12076;SDS011;12420;42.676;23.262;2022-07-18T12:39:56;4.97;;;2.40;;
12076;SDS011;12420;42.676;23.262;2022-07-18T12:42:27;3.40;;;2.10;;
12076;SDS011;12420;42.676;23.262;2022-07-18T12:44:58;6.38;;;2.30;;
12076;SDS011;12420;42.676;23.262;2022-07-18T12:47:25;8.02;;;2.00;;
12076;SDS011;12420;42.676;23.262;2022-07-18T12:49:52;5.95;;;2.90;;
12076;SDS011;12420;42.676;23.262;2022-07-18T12:52:19;4.75;;;2.38;;
12076;SDS011;12420;42.676;23.262;2022-07-18T12:54:46;3.67;;;2.65;;
12076;SDS011;12420;42.676;23.262;2022-07-18T12:57:13;3.08;;;2.40;;
12076;SDS011;12420;42.676;23.262;2022-07-18T12:59:40;6.15;;;2.90;;
12076;SDS011;12420;42.676;23.262;2022-07-18T13:02:08;3.42;;;2.50;;
12076;SDS011;12420;42.676;23.262;2022-07-18T13:04:36;5.00;;;2.53;;
12076;SDS011;12420;42.676;23.262;2022-07-18T13:07:02;10.00;;;2.72;;
12076;SDS011;12420;42.676;23.262;2022-07-18T13:09:29;7.22;;;2.50;;
12076;SDS011;12420;42.676;23.262;2022-07-18T13:11:57;5.20;;;2.70;;
12076;SDS011;12420;42.676;23.262;2022-07-18T13:14:24;5.28;;;2.60;;
12076;SDS011;12420;42.676;23.262;2022-07-18T13:16:52;5.50;;;2.60;;
12076;SDS011;12420;42.676;23.262;2022-07-18T13:19:21;4.03;;;2.33;;
12076;SDS011;12420;42.676;23.262;2022-07-18T13:21:48;5.20;;;2.83;;
12076;SDS011;12420;42.676;23.262;2022-07-18T13:24:15;2.83;;;2.60;;
12076;SDS011;12420;42.676;23.262;2022-07-18T13:26:42;2.50;;;2.30;;
12076;SDS011;12420;42.676;23.262;2022-07-18T13:29:09;2.60;;;2.40;;
12076;SDS011;12420;42.676;23.262;2022-07-18T13:31:35;3.40;;;2.30;;
12076;SDS011;12420;42.676;23.262;2022-07-18T13:34:02;2.75;;;2.53;;
12076;SDS011;12420;42.676;23.262;2022-07-18T13:36:31;2.45;;;2.20;;
12076;SDS011;12420;42.676;23.262;2022-07-18T13:38:58;2.85;;;2.65;;
12076;SDS011;12420;42.676;23.262;2022-07-18T13:41:26;7.22;;;2.65;;
12076;SDS011;12420;42.676;23.262;2022-07-18T13:43:53;3.95;;;2.60;;
12076;SDS011;12420;42.676;23.262;2022-07-18T13:46:20;4.22;;;2.58;;
12076;SDS011;12420;42.676;23.262;2022-07-18T13:48:47;3.70;;;2.35;;
12076;SDS011;12420;42.676;23.262;2022-07-18T13:51:15;2.75;;;2.55;;
12076;SDS011;12420;42.676;23.262;2022-07-18T13:53:43;6.93;;;2.50;;
12076;SDS011;12420;42.676;23.262;2022-07-18T13:56:11;2.33;;;2.13;;
12076;SDS011;12420;42.676;23.262;2022-07-18T13:58:37;6.38;;;2.53;;
12076;SDS011;12420;42.676;23.262;2022-07-18T14:01:05;4.35;;;2.80;;
12076;SDS011;12420;42.676;23.262;2022-07-18T14:03:35;4.57;;;2.40;;
12076;SDS011;12420;42.676;23.262;2022-07-18T14:06:02;3.20;;;2.33;;
12076;SDS011;12420;42.676;23.262;2022-07-18T14:08:29;2.85;;;2.45;;
12076;SDS011;12420;42.676;23.262;2022-07-18T14:10:57;10.20;;;2.60;;
12076;SDS011;12420;42.676;23.262;2022-07-18T14:13:24;2.35;;;2.15;;
12076;SDS011;12420;42.676;23.262;2022-07-18T14:15:51;7.53;;;2.78;;
12076;SDS011;12420;42.676;23.262;2022-07-18T14:18:18;7.47;;;3.80;;
12076;SDS011;12420;42.676;23.262;2022-07-18T14:20:45;4.22;;;2.97;;
12076;SDS011;12420;42.676;23.262;2022-07-18T14:23:12;5.38;;;2.53;;
12076;SDS011;12420;42.676;23.262;2022-07-18T14:25:39;6.13;;;2.63;;
12076;SDS011;12420;42.676;23.262;2022-07-18T14:28:07;2.80;;;2.60;;
12076;SDS011;12420;42.676;23.262;2022-07-18T14:30:34;4.43;;;2.78;;
12076;SDS011;12420;42.676;23.262;2022-07-18T14:33:01;4.93;;;2.70;;
12076;SDS011;12420;42.676;23.262;2022-07-18T14:35:28;7.10;;;3.05;;
12076;SDS011;12420;42.676;23.262;2022-07-18T14:37:55;4.53;;;2.60;;
12076;SDS011;12420;42.676;23.262;2022-07-18T14:40:22;9.25;;;2.80;;
12076;SDS011;12420;42.676;23.262;2022-07-18T14:42:49;5.38;;;2.67;;
12076;SDS011;12420;42.676;23.262;2022-07-18T14:45:18;3.13;;;2.92;;
12076;SDS011;12420;42.676;23.262;2022-07-18T14:47:45;6.65;;;2.58;;
12076;SDS011;12420;42.676;23.262;2022-07-18T14:50:14;3.35;;;2.35;;
12076;SDS011;12420;42.676;23.262;2022-07-18T14:52:43;3.13;;;2.70;;
12076;SDS011;12420;42.676;23.262;2022-07-18T14:55:10;13.25;;;2.90;;